Spring Garden, Alabama
Current Conditions -  °F | °C
As of 2:53 AM on Wednesday 28 Jan 2015 (Local Time) from KANB Reporting Station
Overcast Overcast  
Wind Chill: 34°   Ceiling: 2600
Heat Index: 38°   Visibility: 10mi
Dew Point: 27°   Wind: 5mph
Humidity: 65%   Direction: 360°N
Pressure: 30.19"   Gusts: NA
Location:  33.97°N, 85.55°W
Report Text: KANB 280853Z AUTO 36004KT 10SM OVC026 03/M03 A3019 RMK AO2 SLP229 T00331028 53007
Loading
Personal Weather Stations






























Interactive Weather Map New forecast layout! Learn more

10-Day Weather Forecast

Advertisements
Track Severe Weather on mobile